Time;durP1;ratioP1;P1;durP2;ratioP2;P2;SDS_P1;SDS_P2;PMS_P1;PMS_P2;Temp;Humidity;BMP_temperature;BMP_pressure;BME280_temperature;BME280_humidity;BME280_pressure;Samples;Min_cycle;Max_cycle;Signal;HPM_P1;HPM_P2
2023/12/29 00:01:55;;;;;;;10.57;5.00;;;10.10;1.00;;;;;;4991929;28;20581;-78
2023/12/29 00:04:21;;;;;;;5.87;4.00;;;10.00;1.00;;;;;;5007106;28;20605;-77
2023/12/29 00:06:47;;;;;;;9.93;5.00;;;12.00;1.00;;;;;;4988494;28;20240;-78
2023/12/29 00:09:14;;;;;;;6.63;4.17;;;10.00;1.00;;;;;;4989834;28;20186;-77
2023/12/29 00:11:39;;;;;;;9.43;3.97;;;10.00;1.00;;;;;;4990468;28;20452;-77
2023/12/29 00:14:05;;;;;;;7.00;4.60;;;10.00;1.00;;;;;;4990149;28;20944;-76
2023/12/29 00:16:30;;;;;;;6.33;4.30;;;10.00;1.00;;;;;;4988399;28;20193;-77
2023/12/29 00:18:56;;;;;;;10.80;4.57;;;10.00;1.00;;;;;;4989639;28;20331;-77
2023/12/29 00:21:21;;;;;;;6.67;4.20;;;10.00;1.00;;;;;;4989468;28;20466;-77
2023/12/29 00:23:48;;;;;;;5.63;4.40;;;10.10;1.00;;;;;;4994147;28;20207;-77
2023/12/29 00:26:16;;;;;;;5.63;4.07;;;10.10;1.00;;;;;;4989896;28;20584;-77
2023/12/29 00:28:42;;;;;;;7.50;4.80;;;10.10;1.00;;;;;;4989964;28;20788;-78
2023/12/29 00:31:09;;;;;;;5.70;4.40;;;10.20;1.00;;;;;;4989020;28;20867;-78
2023/12/29 00:33:34;;;;;;;7.23;4.57;;;10.30;1.00;;;;;;4993279;28;20476;-77
2023/12/29 00:36:00;;;;;;;5.73;4.17;;;10.20;1.00;;;;;;4988932;28;20454;-77
2023/12/29 00:38:29;;;;;;;4.77;3.70;;;10.30;1.00;;;;;;4994157;28;20664;-77
2023/12/29 00:40:54;;;;;;;7.23;3.93;;;10.30;1.00;;;;;;4981281;28;20191;-77
2023/12/29 00:43:20;;;;;;;8.07;4.10;;;10.30;1.00;;;;;;4986600;28;20790;-77
2023/12/29 00:45:46;;;;;;;6.80;4.23;;;10.30;1.00;;;;;;4988242;28;20684;-77
2023/12/29 00:48:11;;;;;;;5.30;4.00;;;10.30;1.00;;;;;;4989361;28;20517;-79
2023/12/29 00:50:37;;;;;;;8.87;4.50;;;10.30;1.00;;;;;;4988757;28;20269;-77
2023/12/29 00:53:03;;;;;;;5.60;4.40;;;10.20;1.00;;;;;;4989288;28;20211;-77
2023/12/29 00:55:28;;;;;;;5.30;4.40;;;10.20;1.00;;;;;;4988487;28;20275;-78
2023/12/29 00:57:54;;;;;;;10.70;4.60;;;10.30;1.00;;;;;;4992400;28;20338;-77
2023/12/29 01:00:20;;;;;;;5.53;4.20;;;10.20;1.00;;;;;;4989488;28;20190;-77
2023/12/29 01:02:45;;;;;;;7.07;4.67;;;10.20;1.00;;;;;;4988906;28;20441;-77
2023/12/29 01:05:16;;;;;;;6.27;4.93;;;10.20;1.00;;;;;;4988862;28;20577;-77
2023/12/29 01:07:41;;;;;;;7.17;4.50;;;10.20;1.00;;;;;;4988653;28;20222;-77
2023/12/29 01:10:07;;;;;;;6.10;5.00;;;10.20;1.00;;;;;;4989006;28;20473;-77
2023/12/29 01:12:33;;;;;;;10.17;4.10;;;10.30;1.00;;;;;;4992585;28;20183;-77
2023/12/29 01:14:59;;;;;;;6.33;4.10;;;10.20;1.00;;;;;;4985092;28;20427;-78
2023/12/29 01:17:24;;;;;;;6.50;3.87;;;10.30;1.00;;;;;;4979925;28;20592;-77
2023/12/29 01:19:50;;;;;;;6.80;4.57;;;10.30;1.00;;;;;;4988603;28;20190;-77
2023/12/29 01:22:15;;;;;;;6.10;4.03;;;10.30;1.00;;;;;;4992063;28;20554;-78
2023/12/29 01:24:41;;;;;;;5.50;4.00;;;10.40;1.00;;;;;;4986486;28;20211;-76
2023/12/29 01:27:06;;;;;;;6.93;3.97;;;10.40;1.00;;;;;;4990322;28;20178;-77
2023/12/29 01:29:32;;;;;;;5.77;4.37;;;10.40;1.00;;;;;;4991797;28;20668;-75
2023/12/29 01:31:57;;;;;;;6.33;3.90;;;10.40;1.00;;;;;;4988781;28;20183;-77
2023/12/29 01:34:23;;;;;;;6.30;4.30;;;10.30;1.00;;;;;;4988030;28;20753;-76
2023/12/29 01:36:48;;;;;;;6.50;3.83;;;10.30;1.00;;;;;;4988004;28;20187;-77
2023/12/29 01:39:13;;;;;;;6.30;3.57;;;10.20;1.00;;;;;;4989019;28;20251;-77
2023/12/29 01:41:39;;;;;;;4.90;3.90;;;10.20;1.00;;;;;;4988149;28;20195;-77
2023/12/29 01:44:18;;;;;;;6.90;3.83;;;10.10;1.00;;;;;;4986604;28;21061;-76
2023/12/29 01:46:46;;;;;;;5.83;4.07;;;10.00;1.00;;;;;;4991322;28;20233;-79
2023/12/29 01:49:13;;;;;;;6.20;4.20;;;10.00;1.00;;;;;;4993185;28;20457;-78
2023/12/29 01:51:39;;;;;;;6.63;4.07;;;10.00;1.00;;;;;;4991336;28;20435;-77
2023/12/29 01:54:04;;;;;;;5.97;3.90;;;9.90;1.00;;;;;;4987839;28;21217;-74
2023/12/29 01:56:30;;;;;;;4.97;3.77;;;9.90;1.00;;;;;;4991583;28;20680;-77
2023/12/29 01:58:56;;;;;;;5.50;4.10;;;9.80;1.00;;;;;;4997069;28;20597;-77
2023/12/29 02:01:22;;;;;;;4.70;3.87;;;9.80;1.00;;;;;;4991730;28;20176;-77
2023/12/29 02:03:48;;;;;;;7.90;4.10;;;9.70;1.00;;;;;;4990705;28;20261;-77
2023/12/29 02:06:15;;;;;;;5.80;4.20;;;9.70;1.00;;;;;;4991286;28;20545;-78
2023/12/29 02:08:41;;;;;;;5.77;4.40;;;9.70;1.00;;;;;;4991191;28;20186;-78
2023/12/29 02:11:07;;;;;;;5.90;4.20;;;9.70;1.00;;;;;;4991696;28;20506;-77
2023/12/29 02:13:32;;;;;;;9.10;4.60;;;9.60;1.00;;;;;;4990547;28;20712;-77
2023/12/29 02:16:07;;;;;;;5.93;3.50;;;9.60;1.00;;;;;;4989955;28;20426;-77
2023/12/29 02:18:36;;;;;;;6.17;3.97;;;9.60;1.00;;;;;;4996888;28;20643;-77
2023/12/29 02:21:02;;;;;;;6.20;4.20;;;9.60;1.00;;;;;;4983482;28;20437;-76
2023/12/29 02:23:28;;;;;;;6.83;4.23;;;9.50;1.00;;;;;;4989664;28;20446;-77
2023/12/29 02:26:01;;;;;;;6.80;4.20;;;9.50;1.00;;;;;;4986574;28;20469;-78
2023/12/29 02:28:27;;;;;;;8.27;4.50;;;9.40;1.00;;;;;;4998276;28;20183;-77
2023/12/29 02:31:06;;;;;;;5.27;4.03;;;9.30;1.00;;;;;;4990760;28;20421;-77
2023/12/29 02:33:40;;;;;;;7.43;4.63;;;9.20;1.00;;;;;;4988195;28;20305;-77
2023/12/29 02:36:06;;;;;;;5.97;4.27;;;9.20;1.00;;;;;;4989571;28;20426;-76
2023/12/29 02:38:32;;;;;;;6.17;4.70;;;9.10;1.00;;;;;;4997904;28;20578;-76
2023/12/29 02:40:58;;;;;;;7.57;5.20;;;9.00;1.00;;;;;;4990339;28;20435;-77
2023/12/29 02:43:24;;;;;;;7.17;4.57;;;8.90;1.00;;;;;;4985188;28;20461;-76
2023/12/29 02:45:50;;;;;;;6.37;4.70;;;8.80;1.00;;;;;;4988449;28;20217;-76
2023/12/29 02:48:15;;;;;;;6.30;4.87;;;8.80;1.00;;;;;;4996793;28;20270;-77
2023/12/29 02:50:41;;;;;;;7.73;5.00;;;8.70;1.00;;;;;;4990153;28;20262;-77
2023/12/29 02:53:07;;;;;;;6.83;4.90;;;8.70;1.00;;;;;;4997514;28;20728;-77
2023/12/29 02:55:32;;;;;;;7.40;5.33;;;8.70;1.00;;;;;;4994845;28;20188;-77
2023/12/29 02:57:58;;;;;;;7.40;4.80;;;8.70;1.00;;;;;;4997382;28;20437;-77
2023/12/29 03:00:23;;;;;;;10.77;4.60;;;8.70;1.00;;;;;;4990747;28;20210;-77
2023/12/29 03:02:49;;;;;;;8.80;4.90;;;8.50;1.00;;;;;;4989135;28;20245;-77
2023/12/29 03:05:15;;;;;;;5.90;4.60;;;8.60;1.00;;;;;;4991569;28;20218;-77
2023/12/29 03:07:40;;;;;;;6.57;4.57;;;8.60;1.00;;;;;;4999876;28;20186;-77
2023/12/29 03:10:07;;;;;;;7.70;4.80;;;8.50;1.00;;;;;;4990637;28;20245;-77
2023/12/29 03:12:33;;;;;;;9.77;4.80;;;8.40;1.00;;;;;;4996519;28;20245;-74
2023/12/29 03:14:59;;;;;;;7.93;5.80;;;8.40;1.00;;;;;;4989956;28;20813;-78
2023/12/29 03:17:24;;;;;;;8.83;5.00;;;8.50;1.00;;;;;;4990400;28;20277;-78
2023/12/29 03:19:50;;;;;;;7.07;5.40;;;8.50;1.00;;;;;;4990002;28;20183;-77
2023/12/29 03:22:16;;;;;;;7.50;4.97;;;8.70;1.00;;;;;;4989208;28;20183;-77
2023/12/29 03:24:42;;;;;;;13.53;5.67;;;8.60;1.00;;;;;;4989100;28;20214;-78
2023/12/29 03:27:08;;;;;;;10.73;6.00;;;8.70;1.00;;;;;;4989459;28;20209;-77
2023/12/29 03:29:33;;;;;;;13.97;5.80;;;8.70;1.00;;;;;;4995119;28;20458;-78
2023/12/29 03:31:59;;;;;;;7.40;4.87;;;8.80;1.00;;;;;;4989155;28;20513;-78
2023/12/29 03:34:24;;;;;;;8.20;5.47;;;8.80;1.00;;;;;;4990282;28;20639;-77
2023/12/29 03:36:50;;;;;;;7.23;5.23;;;8.80;1.00;;;;;;4990178;28;20190;-77
2023/12/29 03:39:16;;;;;;;7.13;4.70;;;8.70;1.00;;;;;;4990260;28;20190;-77
2023/12/29 03:41:41;;;;;;;7.00;4.93;;;8.70;1.00;;;;;;4985242;28;20226;-78
2023/12/29 03:44:07;;;;;;;9.17;5.30;;;8.80;1.00;;;;;;4984261;28;20221;-77
2023/12/29 03:46:32;;;;;;;8.63;5.70;;;8.90;1.00;;;;;;4992698;28;20187;-76
2023/12/29 03:48:58;;;;;;;8.70;5.53;;;8.90;1.00;;;;;;4991333;28;20211;-77
2023/12/29 03:51:23;;;;;;;8.40;5.40;;;9.00;1.00;;;;;;4988611;28;20192;-77
2023/12/29 03:53:49;;;;;;;7.10;5.20;;;9.10;1.00;;;;;;4985505;28;20221;-77
2023/12/29 03:56:16;;;;;;;6.90;5.00;;;9.20;1.00;;;;;;4996487;28;20214;-77
2023/12/29 03:58:43;;;;;;;7.70;5.30;;;9.20;1.00;;;;;;4996689;28;20195;-78
2023/12/29 04:01:12;;;;;;;9.80;5.60;;;9.30;1.00;;;;;;4988362;28;20426;-77
2023/12/29 04:03:38;;;;;;;7.50;5.07;;;9.30;1.00;;;;;;4984939;28;20453;-77
2023/12/29 04:06:04;;;;;;;9.03;5.20;;;9.20;1.00;;;;;;4990641;28;20493;-77
2023/12/29 04:08:30;;;;;;;7.50;5.03;;;9.20;1.00;;;;;;4989750;28;20190;-77
2023/12/29 04:10:55;;;;;;;7.90;5.07;;;9.20;1.00;;;;;;4990587;28;20425;-77
2023/12/29 04:13:21;;;;;;;8.00;5.47;;;9.20;1.00;;;;;;4984795;28;20328;-79
2023/12/29 04:15:46;;;;;;;7.40;5.30;;;9.10;1.00;;;;;;4981304;28;20889;-77
2023/12/29 04:18:12;;;;;;;6.70;4.80;;;9.20;1.00;;;;;;4987849;28;20418;-77
2023/12/29 04:20:37;;;;;;;8.83;5.50;;;9.20;1.00;;;;;;4989478;28;20266;-77
2023/12/29 04:23:05;;;;;;;7.60;5.10;;;9.30;1.00;;;;;;4983277;28;20221;-77
2023/12/29 04:25:30;;;;;;;12.83;5.07;;;9.30;1.00;;;;;;4992804;28;20214;-78
2023/12/29 04:27:56;;;;;;;7.23;5.03;;;9.30;1.00;;;;;;4992747;28;20440;-77
2023/12/29 04:30:21;;;;;;;9.50;5.43;;;9.40;1.00;;;;;;4987738;28;20270;-77
2023/12/29 04:32:47;;;;;;;8.90;6.00;;;9.40;1.00;;;;;;4982505;28;20187;-77
2023/12/29 04:35:14;;;;;;;12.30;7.57;;;9.30;1.00;;;;;;4983492;28;20249;-77
2023/12/29 04:37:40;;;;;;;8.20;5.40;;;9.40;1.00;;;;;;4987476;28;20187;-78
2023/12/29 04:40:06;;;;;;;7.23;5.87;;;9.50;1.00;;;;;;4988890;28;20449;-78
2023/12/29 04:42:32;;;;;;;9.90;4.80;;;9.50;1.00;;;;;;4989659;28;20180;-78
2023/12/29 04:44:57;;;;;;;9.50;5.27;;;9.50;1.00;;;;;;4992446;28;21268;-77
2023/12/29 04:47:23;;;;;;;6.13;4.70;;;9.60;1.00;;;;;;4989139;28;20183;-77
2023/12/29 04:49:48;;;;;;;7.40;4.80;;;9.60;1.00;;;;;;4989261;28;20557;-77
2023/12/29 04:52:14;;;;;;;6.60;4.43;;;9.60;1.00;;;;;;4983567;28;20712;-77
2023/12/29 04:54:39;;;;;;;8.00;4.47;;;9.70;1.00;;;;;;4988950;28;20301;-77
2023/12/29 04:57:05;;;;;;;6.60;4.50;;;9.60;1.00;;;;;;4988617;28;20657;-78
2023/12/29 04:59:30;;;;;;;7.10;4.20;;;9.50;1.00;;;;;;4989394;28;20183;-77
2023/12/29 05:01:56;;;;;;;6.77;3.80;;;9.40;1.00;;;;;;4988301;28;20198;-77
2023/12/29 05:04:21;;;;;;;5.90;3.77;;;9.30;1.00;;;;;;4989013;28;20598;-78
2023/12/29 05:06:47;;;;;;;6.40;4.63;;;9.30;1.00;;;;;;4988640;28;20262;-78
2023/12/29 05:09:12;;;;;;;13.90;4.73;;;9.30;1.00;;;;;;4988816;28;20253;-77
2023/12/29 05:11:39;;;;;;;5.83;3.97;;;9.30;1.00;;;;;;4984888;28;20230;-77
2023/12/29 05:14:04;;;;;;;5.50;3.73;;;9.40;1.00;;;;;;4990325;28;20211;-76
2023/12/29 05:16:30;;;;;;;6.90;4.47;;;9.30;1.00;;;;;;4992302;28;20426;-77
2023/12/29 05:18:55;;;;;;;4.37;3.50;;;9.30;1.00;;;;;;4993481;28;20744;-77
2023/12/29 05:21:21;;;;;;;6.80;3.77;;;9.30;1.00;;;;;;4992836;28;20310;-77
2023/12/29 05:23:47;;;;;;;8.43;3.90;;;9.40;1.00;;;;;;4991126;28;21082;-77
2023/12/29 05:26:14;;;;;;;5.60;3.77;;;9.40;1.00;;;;;;4999456;28;20975;-77
2023/12/29 05:28:40;;;;;;;7.93;3.40;;;9.30;1.00;;;;;;5000636;28;20933;-78
2023/12/29 05:31:05;;;;;;;4.83;3.50;;;9.30;1.00;;;;;;4991969;28;20488;-77
2023/12/29 05:33:32;;;;;;;3.73;3.07;;;9.20;1.00;;;;;;4997451;28;20199;-75
2023/12/29 05:35:58;;;;;;;4.47;3.27;;;9.20;1.00;;;;;;4991612;28;20286;-77
2023/12/29 05:38:23;;;;;;;4.33;3.07;;;11.50;1.00;;;;;;4992349;28;20521;-77
2023/12/29 05:40:49;;;;;;;4.60;3.57;;;9.20;1.00;;;;;;4997587;28;20186;-77
2023/12/29 05:43:15;;;;;;;5.60;3.70;;;9.20;1.00;;;;;;4992827;28;20221;-77
2023/12/29 05:45:41;;;;;;;3.67;3.30;;;9.20;1.00;;;;;;4990470;28;20464;-77
2023/12/29 05:48:07;;;;;;;5.50;3.40;;;9.10;1.00;;;;;;4991995;28;20794;-77
2023/12/29 05:50:33;;;;;;;4.07;3.23;;;9.20;1.00;;;;;;5007005;28;20593;-79
2023/12/29 05:52:59;;;;;;;7.50;3.20;;;9.20;1.00;;;;;;4996471;28;20504;-75
2023/12/29 05:55:24;;;;;;;10.90;3.63;;;9.20;1.00;;;;;;4996472;28;20183;-74
2023/12/29 05:57:50;;;;;;;4.43;3.57;;;9.20;1.00;;;;;;4990772;28;20245;-77
2023/12/29 06:00:15;;;;;;;4.20;3.63;;;9.20;1.00;;;;;;4990145;28;20393;-77
2023/12/29 06:02:42;;;;;;;4.57;3.40;;;9.20;1.00;;;;;;4990417;28;20191;-77
2023/12/29 06:05:07;;;;;;;8.10;4.13;;;9.20;1.00;;;;;;4989671;28;20215;-77
2023/12/29 06:07:33;;;;;;;5.30;3.70;;;9.20;1.00;;;;;;4996833;28;21289;-77
2023/12/29 06:09:59;;;;;;;6.37;3.53;;;9.20;1.00;;;;;;4991465;28;20653;-76
2023/12/29 06:12:24;;;;;;;6.07;4.00;;;9.20;1.00;;;;;;4996925;28;20430;-77
2023/12/29 06:14:50;;;;;;;5.10;3.60;;;9.20;1.00;;;;;;4991234;28;20554;-77
2023/12/29 06:17:15;;;;;;;9.53;3.97;;;9.20;1.00;;;;;;4991307;28;20198;-77
2023/12/29 06:19:41;;;;;;;6.20;3.60;;;9.20;1.00;;;;;;4995747;28;20606;-76
2023/12/29 06:22:11;;;;;;;6.13;4.03;;;9.20;1.00;;;;;;5006067;28;20192;-76
2023/12/29 06:24:43;;;;;;;8.60;4.43;;;9.10;1.00;;;;;;4996622;28;20214;-77
2023/12/29 06:27:09;;;;;;;6.00;4.07;;;9.10;1.00;;;;;;4995488;28;20429;-78
2023/12/29 06:29:35;;;;;;;5.87;4.03;;;9.10;1.00;;;;;;4989915;28;20439;-77
2023/12/29 06:32:01;;;;;;;5.90;3.80;;;9.00;1.00;;;;;;4992751;28;20425;-75
2023/12/29 06:34:26;;;;;;;4.87;3.80;;;9.00;1.00;;;;;;4991412;28;21028;-78
2023/12/29 06:36:52;;;;;;;4.27;3.30;;;9.00;1.00;;;;;;4993551;28;20294;-77
2023/12/29 06:39:17;;;;;;;6.07;3.93;;;9.00;1.00;;;;;;4991133;28;20193;-78
2023/12/29 06:41:43;;;;;;;5.40;3.67;;;9.00;1.00;;;;;;4985690;28;20203;-77
2023/12/29 06:44:08;;;;;;;6.17;4.33;;;9.00;1.00;;;;;;5004466;28;20202;-75
2023/12/29 06:46:36;;;;;;;5.80;3.80;;;9.00;1.00;;;;;;5008162;28;20274;-77
2023/12/29 06:49:02;;;;;;;4.50;3.37;;;9.00;1.00;;;;;;4990023;28;20202;-78
2023/12/29 06:51:28;;;;;;;5.30;3.80;;;9.00;1.00;;;;;;4989509;28;20440;-78
2023/12/29 06:53:54;;;;;;;6.43;4.03;;;9.10;1.00;;;;;;4995835;28;20905;-77
2023/12/29 06:56:20;;;;;;;6.30;4.00;;;9.10;1.00;;;;;;4993405;28;20561;-77
2023/12/29 06:58:45;;;;;;;5.90;3.90;;;9.10;1.00;;;;;;4991043;28;20534;-77
2023/12/29 07:01:11;;;;;;;6.43;4.50;;;9.10;1.00;;;;;;4990425;28;20194;-77
2023/12/29 07:03:36;;;;;;;5.03;3.97;;;9.00;1.00;;;;;;4997540;28;20223;-77
2023/12/29 07:06:02;;;;;;;7.30;4.03;;;9.00;1.00;;;;;;4989071;28;20249;-77
2023/12/29 07:08:28;;;;;;;7.70;4.50;;;9.00;1.00;;;;;;4989054;28;20411;-78
2023/12/29 07:10:53;;;;;;;6.00;4.03;;;9.00;1.00;;;;;;4990737;28;20187;-77
2023/12/29 07:13:19;;;;;;;6.10;3.60;;;9.00;1.00;;;;;;4991515;28;20198;-77
2023/12/29 07:15:48;;;;;;;6.83;4.20;;;9.00;1.00;;;;;;4990194;28;20574;-77
2023/12/29 07:18:14;;;;;;;5.70;4.00;;;9.00;1.00;;;;;;4989280;28;20194;-77
2023/12/29 07:20:40;;;;;;;5.70;4.03;;;9.10;1.00;;;;;;5002657;28;20430;-77
2023/12/29 07:23:05;;;;;;;5.93;3.80;;;9.10;1.00;;;;;;4993126;28;20503;-77
2023/12/29 07:25:31;;;;;;;5.53;3.80;;;9.10;1.00;;;;;;4990969;28;20218;-77
2023/12/29 07:27:56;;;;;;;5.07;3.63;;;9.20;1.00;;;;;;4995149;28;20206;-76
2023/12/29 07:30:22;;;;;;;7.30;4.37;;;9.20;1.00;;;;;;4988090;28;20175;-77
2023/12/29 07:32:47;;;;;;;6.20;3.63;;;9.20;1.00;;;;;;5003573;28;20187;-78
2023/12/29 07:35:16;;;;;;;4.40;3.57;;;9.20;1.00;;;;;;4989504;28;20268;-77
2023/12/29 07:37:42;;;;;;;7.23;4.60;;;9.30;1.00;;;;;;4990164;28;20187;-78
2023/12/29 07:40:10;;;;;;;5.00;3.87;;;9.30;1.00;;;;;;4988527;28;20949;-74
2023/12/29 07:42:35;;;;;;;5.53;3.97;;;9.20;1.00;;;;;;4989984;28;20188;-77
2023/12/29 07:45:01;;;;;;;5.80;3.80;;;9.20;1.00;;;;;;4993519;28;20484;-78
2023/12/29 07:47:26;;;;;;;6.60;4.30;;;9.20;1.00;;;;;;4987584;28;20677;-79
2023/12/29 07:49:52;;;;;;;6.87;4.17;;;9.20;1.00;;;;;;4990071;28;20527;-77
2023/12/29 07:52:17;;;;;;;7.23;3.90;;;9.20;1.00;;;;;;4988337;28;20179;-77
2023/12/29 07:54:43;;;;;;;5.97;4.13;;;9.30;1.00;;;;;;4990896;28;20206;-78
2023/12/29 07:57:08;;;;;;;4.87;3.80;;;9.30;1.00;;;;;;4989048;28;20642;-77
2023/12/29 07:59:34;;;;;;;6.23;4.13;;;9.40;1.00;;;;;;4982019;28;20195;-77
2023/12/29 08:01:59;;;;;;;5.70;4.10;;;9.50;1.00;;;;;;4987754;28;20187;-78
2023/12/29 08:04:25;;;;;;;9.33;4.53;;;9.60;1.00;;;;;;4988864;28;20219;-78
2023/12/29 08:06:51;;;;;;;5.93;3.53;;;9.60;1.00;;;;;;4990609;28;20561;-77
2023/12/29 08:09:17;;;;;;;6.37;3.83;;;9.80;1.00;;;;;;4989390;28;20481;-77
2023/12/29 08:11:43;;;;;;;6.40;4.00;;;9.80;1.00;;;;;;4989637;28;20534;-78
2023/12/29 08:14:08;;;;;;;5.80;4.00;;;9.90;1.00;;;;;;4985261;28;20211;-77
2023/12/29 08:16:39;;;;;;;4.97;3.80;;;10.00;1.00;;;;;;4986479;28;20530;-76
2023/12/29 08:19:05;;;;;;;5.40;3.83;;;10.00;1.00;;;;;;4985682;28;20191;-75
2023/12/29 08:21:32;;;;;;;5.43;3.93;;;10.00;1.00;;;;;;4986410;28;20971;-77
2023/12/29 08:23:57;;;;;;;6.80;4.40;;;10.10;1.00;;;;;;4987827;28;20462;-76
2023/12/29 08:26:23;;;;;;;5.00;4.03;;;10.10;1.00;;;;;;4987358;28;20751;-77
2023/12/29 08:28:48;;;;;;;5.13;3.60;;;10.20;1.00;;;;;;4977379;28;20213;-77
2023/12/29 08:31:14;;;;;;;6.00;3.70;;;10.30;1.00;;;;;;4984488;28;20187;-75
2023/12/29 08:33:40;;;;;;;5.50;3.80;;;10.30;1.00;;;;;;4996360;28;20282;-76
2023/12/29 08:36:06;;;;;;;5.90;4.00;;;10.40;1.00;;;;;;4988460;28;20525;-77
2023/12/29 08:38:32;;;;;;;4.90;3.80;;;10.60;1.00;;;;;;5005400;28;20592;-77
2023/12/29 08:40:58;;;;;;;5.47;3.90;;;10.60;1.00;;;;;;4991008;28;20472;-77
2023/12/29 08:43:23;;;;;;;6.07;4.10;;;10.60;1.00;;;;;;4994429;28;20211;-77
2023/12/29 08:45:49;;;;;;;6.93;4.30;;;10.70;1.00;;;;;;4988331;28;20215;-77
2023/12/29 08:48:14;;;;;;;5.60;3.67;;;10.70;1.00;;;;;;4983108;28;20218;-73
2023/12/29 08:50:40;;;;;;;6.50;4.00;;;10.80;1.00;;;;;;4992193;28;20189;-77
2023/12/29 08:53:05;;;;;;;7.00;4.07;;;10.80;1.00;;;;;;4993045;28;20678;-78
2023/12/29 08:55:33;;;;;;;6.03;4.20;;;10.80;1.00;;;;;;4991092;28;20206;-77
2023/12/29 08:57:59;;;;;;;5.70;3.93;;;11.00;1.00;;;;;;4991796;28;20214;-77
2023/12/29 09:00:24;;;;;;;5.63;3.77;;;11.00;1.00;;;;;;4988835;28;20532;-77
2023/12/29 09:02:50;;;;;;;6.70;3.80;;;11.30;1.00;;;;;;4992991;28;20191;-77
2023/12/29 09:05:15;;;;;;;5.20;3.70;;;11.70;1.00;;;;;;4992421;28;20218;-76
2023/12/29 09:07:41;;;;;;;5.70;3.73;;;11.50;1.00;;;;;;4987446;28;20214;-77
2023/12/29 09:10:13;;;;;;;4.47;3.20;;;11.90;1.00;;;;;;4992852;28;20660;-77
2023/12/29 09:12:39;;;;;;;4.73;3.60;;;11.70;1.00;;;;;;4992365;28;20183;-77
2023/12/29 09:15:05;;;;;;;5.23;3.70;;;11.70;1.00;;;;;;4991322;28;20427;-77
2023/12/29 09:17:31;;;;;;;7.13;3.60;;;11.90;1.00;;;;;;5005765;28;20928;-77
2023/12/29 09:19:56;;;;;;;5.77;3.40;;;12.00;1.00;;;;;;4989108;28;20445;-76
2023/12/29 09:22:22;;;;;;;3.67;3.03;;;12.00;1.00;;;;;;4992068;28;20241;-77
2023/12/29 09:24:47;;;;;;;5.10;2.90;;;12.10;1.00;;;;;;4992511;28;20449;-76
2023/12/29 09:27:13;;;;;;;4.30;3.13;;;12.30;1.00;;;;;;4987662;28;20283;-76
2023/12/29 09:29:40;;;;;;;4.17;3.20;;;12.60;1.00;;;;;;4985392;28;20179;-76
2023/12/29 09:32:05;;;;;;;4.10;3.00;;;12.90;1.00;;;;;;4993222;28;20262;-76
2023/12/29 09:34:31;;;;;;;3.87;3.03;;;13.20;1.00;;;;;;4992788;28;20996;-77
2023/12/29 09:36:57;;;;;;;3.90;2.93;;;13.10;1.00;;;;;;4991661;28;20237;-77
2023/12/29 09:39:23;;;;;;;2.90;2.50;;;12.80;1.00;;;;;;4991148;28;20271;-76
2023/12/29 09:41:52;;;;;;;3.50;2.60;;;12.60;1.00;;;;;;4990846;28;20176;-76
2023/12/29 09:44:20;;;;;;;5.20;2.83;;;12.70;1.00;;;;;;4988004;28;20199;-78
2023/12/29 09:46:50;;;;;;;3.80;2.47;;;13.60;1.00;;;;;;5005959;28;20761;-77
2023/12/29 09:49:18;;;;;;;2.90;2.50;;;14.60;1.00;;;;;;4992247;28;20897;-77
2023/12/29 09:51:44;;;;;;;3.70;2.80;;;15.50;1.00;;;;;;4992462;28;20785;-77
2023/12/29 09:54:10;;;;;;;5.50;3.33;;;15.90;1.00;;;;;;4990335;28;20450;-78
2023/12/29 09:56:37;;;;;;;6.43;2.73;;;16.30;1.00;;;;;;4989070;28;20539;-77
2023/12/29 09:59:03;;;;;;;3.80;2.70;;;16.90;1.00;;;;;;4988632;28;20422;-78
2023/12/29 10:01:30;;;;;;;3.80;3.00;;;16.80;1.00;;;;;;4991055;28;20423;-78
2023/12/29 10:03:56;;;;;;;17.07;5.07;;;17.50;1.00;;;;;;5050032;23;20931;-75
2023/12/29 10:06:25;;;;;;;5.23;3.27;;;17.50;1.00;;;;;;4983661;28;20480;-74
2023/12/29 10:08:51;;;;;;;4.33;3.20;;;17.60;1.00;;;;;;4982873;28;20424;-74
2023/12/29 10:11:22;;;;;;;4.20;3.10;;;17.40;1.00;;;;;;4988954;28;20426;-75
2023/12/29 10:13:50;;;;;;;4.47;3.23;;;16.20;1.00;;;;;;4990215;28;20427;-74
2023/12/29 10:16:21;;;;;;;3.93;2.83;;;16.10;1.00;;;;;;4983905;28;20425;-74
2023/12/29 10:19:27;;;;;;;4.70;2.90;;;15.50;1.00;;;;;;4971800;28;20443;-74
2023/12/29 10:22:21;;;;;;;4.07;2.30;;;14.60;1.00;;;;;;4985101;28;20475;-74
2023/12/29 10:24:49;;;;;;;3.87;2.60;;;13.90;1.00;;;;;;4991702;28;20504;-74
2023/12/29 10:27:15;;;;;;;3.30;2.23;;;13.70;1.00;;;;;;4986753;28;20993;-74
2023/12/29 10:29:41;;;;;;;3.17;2.67;;;13.50;1.00;;;;;;4992079;28;20434;-74
2023/12/29 10:32:06;;;;;;;3.23;2.80;;;13.50;1.00;;;;;;4990085;28;20258;-74
2023/12/29 10:34:32;;;;;;;2.40;2.20;;;14.30;1.00;;;;;;4990845;28;20282;-74
2023/12/29 10:37:09;;;;;;;5.10;2.43;;;14.40;1.00;;;;;;4983599;28;20205;-74
2023/12/29 10:39:36;;;;;;;4.07;2.33;;;14.80;1.00;;;;;;4983247;28;20187;-74
2023/12/29 10:42:09;;;;;;;3.70;2.20;;;15.00;1.00;;;;;;4973257;28;20423;-76
2023/12/29 10:44:36;;;;;;;2.83;2.20;;;15.50;1.00;;;;;;4977719;28;20809;-75
2023/12/29 10:47:11;;;;;;;3.90;2.20;;;15.70;1.00;;;;;;4977685;28;20506;-77
2023/12/29 10:49:37;;;;;;;3.00;2.57;;;15.90;1.00;;;;;;4981970;28;20933;-76
2023/12/29 10:52:12;;;;;;;3.83;2.70;;;16.50;1.00;;;;;;4977177;28;20422;-76
2023/12/29 10:54:37;;;;;;;3.87;2.77;;;17.30;1.00;;;;;;4989999;28;20445;-76
2023/12/29 10:57:03;;;;;;;4.50;2.70;;;17.60;1.00;;;;;;4977138;28;20450;-76
2023/12/29 10:59:29;;;;;;;3.80;2.80;;;18.50;1.00;;;;;;4971581;28;20180;-75
2023/12/29 11:01:55;;;;;;;4.10;2.80;;;19.50;1.00;;;;;;4975267;28;20294;-75
2023/12/29 11:04:24;;;;;;;3.90;2.50;;;19.90;1.00;;;;;;4974880;28;20215;-76
2023/12/29 11:06:51;;;;;;;6.00;2.90;;;19.80;1.00;;;;;;4987737;28;20423;-75
2023/12/29 11:09:34;;;;;;;7.50;2.90;;;19.30;1.00;;;;;;4970003;28;20439;-76
2023/12/29 11:12:01;;;;;;;3.63;2.30;;;18.60;1.00;;;;;;4975961;28;20421;-76
2023/12/29 11:14:30;;;;;;;4.10;2.60;;;17.40;1.00;;;;;;4986571;28;21214;-75
2023/12/29 11:16:57;;;;;;;4.63;2.60;;;17.40;1.00;;;;;;4979635;28;20427;-76
2023/12/29 11:19:23;;;;;;;4.43;3.10;;;18.10;1.00;;;;;;4978680;28;20486;-74
2023/12/29 11:21:54;;;;;;;3.90;2.93;;;18.80;1.00;;;;;;4980062;28;20453;-74
2023/12/29 11:24:19;;;;;;;4.00;2.40;;;17.60;1.00;;;;;;4983137;28;20338;-74
2023/12/29 11:26:45;;;;;;;3.40;2.63;;;17.00;1.00;;;;;;4971289;28;21039;-74
2023/12/29 11:29:14;;;;;;;3.03;2.30;;;15.90;1.00;;;;;;4985361;28;20190;-74
2023/12/29 11:31:40;;;;;;;3.77;2.20;;;15.70;1.00;;;;;;4979193;28;20701;-74
2023/12/29 11:34:26;;;;;;;2.60;2.00;;;15.60;1.00;;;;;;4981909;28;20473;-75
2023/12/29 11:37:01;;;;;;;3.00;2.33;;;15.50;1.00;;;;;;4976432;28;20336;-74
2023/12/29 11:39:48;;;;;;;2.57;1.80;;;15.20;1.00;;;;;;4971096;28;20430;-74
2023/12/29 11:42:22;;;;;;;6.00;2.20;;;15.00;1.00;;;;;;4985665;28;20936;-74
2023/12/29 11:44:48;;;;;;;3.70;2.03;;;15.30;1.00;;;;;;4976308;28;20478;-73
2023/12/29 11:47:37;;;;;;;1.97;1.67;;;15.30;1.00;;;;;;4972611;28;20442;-73
2023/12/29 11:50:03;;;;;;;1.83;1.67;;;15.10;1.00;;;;;;4975716;28;20534;-74
2023/12/29 11:52:38;;;;;;;4.17;2.13;;;14.70;1.00;;;;;;4976759;28;20467;-73
2023/12/29 11:55:11;;;;;;;2.60;1.80;;;14.50;1.00;;;;;;4965119;28;20446;-73
2023/12/29 11:57:38;;;;;;;3.23;1.70;;;14.30;1.00;;;;;;4977442;28;20790;-73
2023/12/29 12:00:05;;;;;;;2.23;1.70;;;14.20;1.00;;;;;;4983576;28;20904;-73
2023/12/29 12:02:31;;;;;;;4.73;1.90;;;14.20;1.00;;;;;;4973417;28;20486;-73
2023/12/29 12:04:56;;;;;;;3.20;1.90;;;14.00;1.00;;;;;;4980331;28;20880;-74
2023/12/29 12:07:22;;;;;;;2.97;1.70;;;14.00;1.00;;;;;;4966618;28;20204;-73
2023/12/29 12:09:49;;;;;;;3.30;2.00;;;13.90;1.00;;;;;;4972910;28;20214;-73
2023/12/29 12:12:34;;;;;;;1.60;1.30;;;13.70;1.00;;;;;;4969647;28;20559;-73
2023/12/29 12:15:01;;;;;;;2.70;1.97;;;13.90;1.00;;;;;;4976246;28;20513;-74
2023/12/29 12:17:31;;;;;;;7.63;5.13;;;14.00;1.00;;;;;;4971029;28;20442;-74
2023/12/29 12:20:17;;;;;;;3.20;1.80;;;15.40;1.00;;;;;;4990088;28;20825;-74
2023/12/29 12:22:44;;;;;;;4.57;2.90;;;17.20;1.00;;;;;;4977835;28;20442;-74
2023/12/29 12:25:12;;;;;;;2.73;2.20;;;17.50;1.00;;;;;;4983960;28;20471;-74
2023/12/29 12:27:38;;;;;;;2.93;1.90;;;17.50;1.00;;;;;;4977358;28;21006;-73
2023/12/29 12:30:04;;;;;;;3.30;2.60;;;18.00;1.00;;;;;;4971366;28;20415;-74
2023/12/29 12:32:30;;;;;;;2.83;1.83;;;18.20;1.00;;;;;;4986367;28;20422;-74
2023/12/29 12:34:56;;;;;;;2.43;1.90;;;17.30;1.00;;;;;;4977621;28;20451;-74
2023/12/29 12:37:29;;;;;;;2.50;1.80;;;16.90;1.00;;;;;;4985036;28;20191;-74
2023/12/29 12:39:55;;;;;;;2.73;1.60;;;16.20;1.00;;;;;;4974157;28;20232;-73
2023/12/29 12:42:22;;;;;;;2.00;1.50;;;15.70;1.00;;;;;;4973942;28;20903;-73
2023/12/29 12:45:06;;;;;;;2.60;2.13;;;14.90;1.00;;;;;;4971322;28;20744;-73
2023/12/29 12:47:59;;;;;;;2.43;1.70;;;15.00;1.00;;;;;;4978321;28;20895;-73
2023/12/29 12:50:26;;;;;;;4.10;2.23;;;14.30;1.00;;;;;;4973672;28;20465;-74
2023/12/29 12:52:52;;;;;;;1.80;1.47;;;14.20;1.00;;;;;;4986490;28;20936;-74
2023/12/29 12:55:18;;;;;;;1.90;1.60;;;14.10;1.00;;;;;;4972523;28;20446;-74
2023/12/29 12:57:44;;;;;;;2.20;1.60;;;14.00;1.00;;;;;;4973963;28;20445;-73
2023/12/29 13:00:10;;;;;;;2.07;1.57;;;14.00;1.00;;;;;;4973972;28;20423;-74
2023/12/29 13:02:36;;;;;;;2.20;1.50;;;13.90;1.00;;;;;;4971922;28;20172;-74